createdAt,value
2019-03-20T00:01:21.232Z,30.10
2019-03-20T00:03:59.939Z,33.90
2019-03-20T00:06:41.584Z,29.33
2019-03-20T00:09:23.268Z,37.50
2019-03-20T00:12:02.804Z,34.57
2019-03-20T00:17:30.176Z,31.03
2019-03-20T00:20:09.385Z,26.63
2019-03-20T00:25:57.960Z,31.63
2019-03-20T00:28:38.954Z,34.10
2019-03-20T00:31:21.241Z,33.57
2019-03-20T00:34:02.774Z,32.60
2019-03-20T00:36:41.622Z,36.17
2019-03-20T00:39:23.137Z,34.80
2019-03-20T00:42:04.709Z,27.20
2019-03-20T00:44:46.199Z,36.40
2019-03-20T00:50:10.982Z,45.67
2019-03-20T00:55:31.939Z,37.73
2019-03-20T00:58:12.946Z,32.27
2019-03-20T01:00:53.974Z,34.53
2019-03-20T01:03:23.004Z,33.17
2019-03-20T01:06:11.782Z,34.20
2019-03-20T01:09:00.210Z,35.10
2019-03-20T01:11:41.299Z,34.27
2019-03-20T01:14:22.436Z,34.80
2019-03-20T01:17:03.992Z,29.17
2019-03-20T01:19:45.421Z,32.97
2019-03-20T01:22:27.004Z,30.53
2019-03-20T01:25:08.072Z,31.23
2019-03-20T01:27:49.576Z,27.47
2019-03-20T01:30:40.119Z,33.13
2019-03-20T01:33:21.383Z,26.13
2019-03-20T01:36:03.019Z,28.97
2019-03-20T01:38:41.960Z,32.63
2019-03-20T01:41:23.529Z,28.90
2019-03-20T01:46:47.808Z,28.80
2019-03-20T01:49:29.431Z,24.97
2019-03-20T01:52:10.258Z,22.83
2019-03-20T01:54:51.521Z,22.70
2019-03-20T01:57:33.121Z,31.97
2019-03-20T02:00:14.400Z,24.20
2019-03-20T02:05:37.134Z,16.73
2019-03-20T02:08:18.553Z,25.17
2019-03-20T02:10:49.379Z,17.93
2019-03-20T02:13:38.136Z,31.97
2019-03-20T02:16:21.971Z,24.03
2019-03-20T02:18:51.706Z,30.33
2019-03-20T02:21:23.457Z,32.83
2019-03-20T02:24:12.229Z,25.93
2019-03-20T02:26:54.594Z,38.13
2019-03-20T02:29:35.615Z,27.13
2019-03-20T02:32:16.727Z,28.17
2019-03-20T02:37:41.210Z,25.20
2019-03-20T02:43:01.991Z,24.20
2019-03-20T02:48:23.061Z,23.27
2019-03-20T02:53:47.908Z,24.33
2019-03-20T02:56:31.425Z,21.80
2019-03-20T03:01:56.000Z,25.97
2019-03-20T03:07:08.779Z,21.50
2019-03-20T03:09:57.518Z,27.33
2019-03-20T03:15:47.939Z,23.90
2019-03-20T03:21:12.470Z,26.23
2019-03-20T03:26:33.118Z,28.47
2019-03-20T03:29:14.275Z,29.93
2019-03-20T03:31:55.898Z,27.67
2019-03-20T03:37:18.121Z,33.97
2019-03-20T03:42:42.071Z,34.27
2019-03-20T03:48:02.654Z,30.30
2019-03-20T03:50:44.223Z,30.03
2019-03-20T03:53:23.566Z,30.70
2019-03-20T03:56:06.160Z,30.97
2019-03-20T04:01:42.790Z,25.17
2019-03-20T04:07:25.451Z,23.17
2019-03-20T04:10:06.990Z,27.60
2019-03-20T04:12:48.604Z,26.23
2019-03-20T04:18:17.582Z,27.90
2019-03-20T04:23:36.344Z,24.37
2019-03-20T04:26:18.102Z,29.00
2019-03-20T04:29:01.031Z,26.70
2019-03-20T04:31:42.030Z,19.27
2019-03-20T04:34:23.554Z,22.63
2019-03-20T04:37:01.897Z,28.97
2019-03-20T04:39:44.614Z,21.00
2019-03-20T04:42:14.647Z,19.00
2019-03-20T04:45:02.695Z,31.40
2019-03-20T04:47:51.481Z,29.70
2019-03-20T04:50:32.755Z,27.50
2019-03-20T04:53:14.139Z,31.60
2019-03-20T04:55:52.435Z,28.23
2019-03-20T04:58:31.563Z,28.80
2019-03-20T05:03:52.277Z,26.10
2019-03-20T05:06:34.040Z,31.37
2019-03-20T05:09:15.227Z,19.43
2019-03-20T05:11:56.832Z,20.53
2019-03-20T05:19:58.235Z,22.00
2019-03-20T05:22:39.814Z,23.20
2019-03-20T05:25:21.267Z,25.60
2019-03-20T05:28:02.782Z,28.53
2019-03-20T05:30:41.192Z,37.87
2019-03-20T05:33:13.385Z,41.30
2019-03-20T05:35:43.076Z,45.83
2019-03-20T05:38:26.834Z,37.57
2019-03-20T05:40:43.637Z,34.43
2019-03-20T05:43:12.722Z,38.93
2019-03-20T05:45:42.700Z,34.53
2019-03-20T05:48:30.929Z,27.53
2019-03-20T05:56:31.732Z,25.03
2019-03-20T05:59:13.339Z,27.03
2019-03-20T06:01:54.812Z,31.80
2019-03-20T06:04:32.934Z,35.37
2019-03-20T06:07:21.465Z,38.27
2019-03-20T06:09:58.569Z,36.27
2019-03-20T06:15:21.687Z,25.87
2019-03-20T06:18:08.825Z,31.93
2019-03-20T06:20:52.758Z,29.93
2019-03-20T06:26:17.181Z,18.73
2019-03-20T06:31:40.289Z,25.27
2019-03-20T06:34:24.616Z,26.40
2019-03-20T06:42:50.701Z,31.47
2019-03-20T06:45:32.289Z,32.03
2019-03-20T06:48:13.877Z,28.87
2019-03-20T06:50:54.767Z,25.20
2019-03-20T06:53:36.855Z,32.40
2019-03-20T06:56:18.079Z,26.90
2019-03-20T06:58:59.384Z,31.23
2019-03-20T07:01:40.383Z,25.93
2019-03-20T07:06:59.452Z,25.93
2019-03-20T07:09:41.188Z,24.27
2019-03-20T07:12:22.628Z,21.93
2019-03-20T07:17:50.257Z,25.77
2019-03-20T07:20:31.526Z,19.93
2019-03-20T07:23:12.967Z,23.40
2019-03-20T07:25:55.782Z,25.47
2019-03-20T07:31:17.431Z,23.50
2019-03-20T07:33:58.496Z,22.97
2019-03-20T07:36:28.929Z,22.87
2019-03-20T07:39:16.948Z,26.33
2019-03-20T07:41:57.872Z,27.10
2019-03-20T07:47:18.638Z,21.87
2019-03-20T07:52:39.702Z,23.40
2019-03-20T07:58:00.238Z,25.13
2019-03-20T08:03:24.166Z,20.67
2019-03-20T08:06:05.616Z,21.07
2019-03-20T08:11:26.258Z,20.40
2019-03-20T08:14:07.405Z,20.80
2019-03-20T08:16:56.043Z,21.43
2019-03-20T08:28:25.793Z,10.67
2019-03-20T08:31:07.617Z,16.03
2019-03-20T08:33:46.483Z,7.67
2019-03-20T08:36:27.852Z,14.17
2019-03-20T08:39:08.401Z,10.37
2019-03-20T08:41:53.925Z,14.90
2019-03-20T08:44:37.024Z,12.40
2019-03-20T08:50:09.354Z,16.37
2019-03-20T08:52:47.065Z,9.13
2019-03-20T08:55:27.485Z,11.70
2019-03-20T08:58:28.871Z,9.73
2019-03-20T09:00:56.826Z,6.37
2019-03-20T09:03:31.136Z,11.43
2019-03-20T09:06:16.701Z,3.87
2019-03-20T09:09:07.893Z,8.37
2019-03-20T09:11:49.709Z,7.43
2019-03-20T09:14:18.930Z,6.30
2019-03-20T09:17:28.207Z,3.40
2019-03-20T09:20:11.820Z,5.90
2019-03-20T09:22:41.829Z,5.57
2019-03-20T09:25:29.855Z,8.20
2019-03-20T09:28:18.734Z,3.63
2019-03-20T09:31:01.374Z,3.17
2019-03-20T09:36:26.091Z,6.07
2019-03-20T09:39:04.567Z,6.67
2019-03-20T09:41:45.894Z,3.47
2019-03-20T09:44:24.229Z,2.60
2019-03-20T09:47:05.938Z,7.93
2019-03-20T09:49:44.611Z,5.83
2019-03-20T09:52:26.047Z,3.33
2019-03-20T09:57:50.701Z,2.00
2019-03-20T10:03:12.144Z,5.63
2019-03-20T10:09:12.371Z,4.87
2019-03-20T10:11:57.537Z,5.60
2019-03-20T10:14:44.557Z,2.00
2019-03-20T10:17:21.672Z,5.10
2019-03-20T10:23:04.783Z,6.10
2019-03-20T10:25:44.843Z,2.27
2019-03-20T10:28:28.469Z,6.00
2019-03-20T10:33:52.356Z,4.47
2019-03-20T10:42:13.495Z,5.03
2019-03-20T10:48:05.380Z,3.27
2019-03-20T10:51:08.810Z,3.43
2019-03-20T10:53:34.481Z,6.33
2019-03-20T10:59:11.084Z,7.57
2019-03-20T11:04:20.432Z,7.67
2019-03-20T11:09:41.639Z,4.13
2019-03-20T11:12:12.910Z,4.87
2019-03-20T11:14:43.013Z,4.53
2019-03-20T11:17:31.248Z,4.70
2019-03-20T11:20:14.509Z,5.50
2019-03-20T11:22:57.650Z,2.70
2019-03-20T11:28:19.464Z,5.83
2019-03-20T11:31:18.461Z,5.27
2019-03-20T11:39:29.557Z,3.40
2019-03-20T11:42:09.114Z,5.33
2019-03-20T11:44:39.176Z,7.80
2019-03-20T11:47:08.475Z,5.20
2019-03-20T11:49:57.368Z,4.70
2019-03-20T11:52:46.307Z,8.70
2019-03-20T11:58:20.316Z,11.70
2019-03-20T12:00:54.633Z,5.53
2019-03-20T12:03:46.650Z,9.67
2019-03-20T12:06:34.814Z,10.10
2019-03-20T12:09:17.362Z,11.57
2019-03-20T12:12:02.255Z,9.60
2019-03-20T12:20:17.046Z,12.43
2019-03-20T12:23:16.812Z,12.33
2019-03-20T12:26:21.137Z,9.37
2019-03-20T12:29:08.953Z,10.43
2019-03-20T12:31:59.619Z,10.20
2019-03-20T12:35:01.098Z,9.03
2019-03-20T12:37:34.971Z,10.43
2019-03-20T12:40:12.748Z,11.57
2019-03-20T12:42:54.219Z,6.90
2019-03-20T12:45:37.064Z,11.07
2019-03-20T12:48:18.012Z,9.53
2019-03-20T12:53:40.336Z,9.37
2019-03-20T12:56:30.647Z,7.43
2019-03-20T12:59:12.194Z,5.67
2019-03-20T13:01:50.159Z,5.40
2019-03-20T13:04:57.888Z,5.30
2019-03-20T13:07:39.042Z,6.67
2019-03-20T13:10:20.419Z,8.40
2019-03-20T13:13:01.977Z,6.50
2019-03-20T13:15:33.544Z,6.80
2019-03-20T13:18:22.200Z,8.73
2019-03-20T13:21:03.298Z,7.77
2019-03-20T13:26:27.334Z,6.93
2019-03-20T13:29:31.265Z,5.67
2019-03-20T13:32:12.881Z,5.23
2019-03-20T13:37:32.116Z,11.23
2019-03-20T13:40:15.713Z,5.90
2019-03-20T13:42:56.288Z,5.30
2019-03-20T13:45:37.952Z,7.40
2019-03-20T13:51:10.251Z,6.53
2019-03-20T13:53:52.238Z,8.80
2019-03-20T13:56:30.682Z,9.23
2019-03-20T13:59:12.387Z,7.07
2019-03-20T14:01:50.895Z,5.13
2019-03-20T14:04:33.522Z,6.83
2019-03-20T14:07:14.995Z,5.53
2019-03-20T14:12:47.073Z,4.10
2019-03-20T14:15:28.347Z,8.40
2019-03-20T14:18:05.482Z,6.53
2019-03-20T14:20:55.391Z,5.63
2019-03-20T14:29:01.000Z,4.07
2019-03-20T14:31:42.063Z,3.63
2019-03-20T14:34:23.762Z,7.80
2019-03-20T14:37:05.416Z,6.87
2019-03-20T14:39:49.551Z,7.13
2019-03-20T14:42:30.871Z,6.23
2019-03-20T14:45:12.284Z,5.27
2019-03-20T14:47:53.696Z,7.70
2019-03-20T14:50:36.486Z,4.50
2019-03-20T14:53:17.620Z,7.40
2019-03-20T14:58:39.175Z,5.43
2019-03-20T15:01:20.533Z,6.67
2019-03-20T15:03:50.347Z,11.53
2019-03-20T15:06:39.390Z,6.13
2019-03-20T15:09:27.471Z,15.10
2019-03-20T15:12:09.872Z,9.77
2019-03-20T15:17:34.396Z,10.93
2019-03-20T15:20:15.912Z,7.27
2019-03-20T15:22:58.041Z,7.33
2019-03-20T15:25:39.643Z,7.43
2019-03-20T15:28:21.598Z,8.97
2019-03-20T15:33:42.260Z,8.77
2019-03-20T15:36:23.879Z,12.93
2019-03-20T15:41:33.910Z,10.30
2019-03-20T15:44:10.175Z,13.60
2019-03-20T15:46:54.651Z,11.53
2019-03-20T15:49:24.747Z,9.80
2019-03-20T15:58:11.216Z,12.60
2019-03-20T16:00:54.350Z,11.40
2019-03-20T16:03:36.312Z,9.60
2019-03-20T16:06:20.565Z,7.50
2019-03-20T16:09:04.752Z,9.80
2019-03-20T16:11:45.926Z,10.37
2019-03-20T16:14:27.605Z,13.23
2019-03-20T16:20:28.629Z,8.53
2019-03-20T16:25:36.805Z,12.57
2019-03-20T16:31:42.750Z,9.33
2019-03-20T16:36:42.712Z,9.90
2019-03-20T16:42:44.392Z,9.50
2019-03-20T16:45:24.147Z,8.93
2019-03-20T16:48:06.352Z,10.97
2019-03-20T16:56:33.326Z,10.30
2019-03-20T16:59:16.783Z,7.80
2019-03-20T17:22:04.270Z,13.03
2019-03-20T17:24:50.359Z,10.13
2019-03-20T17:27:33.727Z,7.67
2019-03-20T17:32:59.278Z,9.33
2019-03-20T17:35:41.807Z,11.27
2019-03-20T17:38:23.385Z,14.73
2019-03-20T17:43:50.878Z,11.27
2019-03-20T17:46:32.184Z,13.37
2019-03-20T17:49:14.872Z,10.20
2019-03-20T17:51:56.487Z,16.47
2019-03-20T17:54:35.975Z,9.97
2019-03-20T17:57:17.481Z,11.33
2019-03-20T18:05:23.809Z,13.40
2019-03-20T18:10:37.206Z,14.23
2019-03-20T18:13:15.285Z,15.73
2019-03-20T18:15:48.484Z,15.23
2019-03-20T18:18:22.222Z,22.37
2019-03-20T18:20:57.048Z,13.70
2019-03-20T18:23:33.020Z,15.80
2019-03-20T18:25:59.225Z,15.17
2019-03-20T18:28:33.509Z,11.20
2019-03-20T18:31:04.781Z,14.73
2019-03-20T18:33:43.711Z,15.37
2019-03-20T18:36:20.182Z,13.73
2019-03-20T18:38:50.317Z,13.33
2019-03-20T18:41:20.192Z,12.80
2019-03-20T18:43:50.008Z,19.43
2019-03-20T18:46:20.401Z,13.43
2019-03-20T18:48:50.527Z,14.10
2019-03-20T18:51:20.503Z,11.60
2019-03-20T18:53:50.768Z,9.47
2019-03-20T18:56:20.714Z,15.90
2019-03-20T18:58:50.553Z,11.20
2019-03-20T19:01:20.460Z,17.20
2019-03-20T19:03:50.688Z,13.23
2019-03-20T19:06:24.035Z,13.77
2019-03-20T19:08:55.434Z,15.23
2019-03-20T19:11:25.581Z,10.63
2019-03-20T19:13:55.233Z,8.80
2019-03-20T19:16:25.284Z,14.90
2019-03-20T19:18:58.267Z,15.97
2019-03-20T19:21:29.474Z,17.30
2019-03-20T19:24:00.808Z,8.20
2019-03-20T19:26:31.165Z,12.70
2019-03-20T19:29:01.138Z,15.80
2019-03-20T19:31:31.381Z,11.57
2019-03-20T19:34:01.232Z,12.20
2019-03-20T19:36:38.376Z,16.97
2019-03-20T19:39:10.210Z,14.77
2019-03-20T19:41:40.028Z,18.30
2019-03-20T19:44:12.271Z,17.00
2019-03-20T19:46:42.120Z,15.50
2019-03-20T19:49:12.163Z,14.80
2019-03-20T19:51:46.007Z,16.33
2019-03-20T19:54:15.860Z,16.60
2019-03-20T19:56:45.713Z,17.30
2019-03-20T19:59:15.745Z,20.67
2019-03-20T20:01:45.533Z,27.70
2019-03-20T20:04:20.202Z,29.80
2019-03-20T20:06:54.254Z,21.07
2019-03-20T20:09:30.529Z,21.10
2019-03-20T20:12:04.408Z,23.50
2019-03-20T20:14:35.783Z,22.33
2019-03-20T20:17:08.275Z,18.87
2019-03-20T20:19:46.342Z,18.40
2019-03-20T20:22:16.871Z,15.47
2019-03-20T20:24:52.357Z,20.97
2019-03-20T20:27:25.456Z,19.47
2019-03-20T20:29:54.826Z,16.67
2019-03-20T20:32:26.708Z,15.70
2019-03-20T20:34:58.237Z,19.27
2019-03-20T20:37:30.474Z,18.40
2019-03-20T20:40:02.214Z,19.47
2019-03-20T20:42:42.517Z,19.70
2019-03-20T20:45:04.574Z,16.70
2019-03-20T20:47:39.276Z,18.87
2019-03-20T20:50:13.729Z,19.37
2019-03-20T20:52:47.789Z,16.20
2019-03-20T20:55:20.218Z,20.70
2019-03-20T20:57:51.606Z,18.17
2019-03-20T21:00:26.503Z,15.90
2019-03-20T21:03:02.729Z,13.77
2019-03-20T21:05:36.531Z,16.37
2019-03-20T21:08:12.277Z,23.47
2019-03-20T21:10:44.076Z,16.90
2019-03-20T21:13:29.781Z,15.20
2019-03-20T21:16:05.657Z,16.57
2019-03-20T21:19:23.169Z,21.87
2019-03-20T21:22:26.752Z,18.03
2019-03-20T21:25:01.954Z,12.83
2019-03-20T21:28:32.812Z,17.00
2019-03-20T21:31:14.735Z,21.93
2019-03-20T21:34:32.609Z,18.33
2019-03-20T21:37:40.617Z,18.30
2019-03-20T21:40:28.100Z,16.83
2019-03-20T21:43:34.471Z,18.93
2019-03-20T21:46:36.805Z,17.77
2019-03-20T21:49:08.857Z,17.27
2019-03-20T21:51:41.541Z,16.20
2019-03-20T21:54:54.991Z,19.57
2019-03-20T21:57:54.653Z,20.60
2019-03-20T22:01:26.020Z,18.10
2019-03-20T22:03:56.590Z,19.30
2019-03-20T22:07:03.043Z,18.20
2019-03-20T22:10:22.772Z,21.40
2019-03-20T22:13:37.068Z,17.97
2019-03-20T22:16:43.743Z,22.50
2019-03-20T22:19:49.090Z,15.80
2019-03-20T22:22:54.568Z,20.53
2019-03-20T22:25:53.550Z,19.00
2019-03-20T22:29:15.776Z,19.50
2019-03-20T22:31:52.678Z,17.07
2019-03-20T22:34:58.574Z,19.10
2019-03-20T22:37:29.152Z,23.33
2019-03-20T22:41:03.967Z,18.83
2019-03-20T22:43:49.091Z,17.20
2019-03-20T22:46:37.656Z,20.00
2019-03-20T22:49:51.892Z,19.07
2019-03-20T22:53:00.064Z,19.13
2019-03-20T22:56:10.871Z,18.53
2019-03-20T22:58:51.057Z,22.57
2019-03-20T23:01:40.685Z,15.33
2019-03-20T23:04:15.613Z,16.00
2019-03-20T23:06:48.314Z,19.37
2019-03-20T23:09:21.203Z,20.70
2019-03-20T23:12:01.129Z,19.93
2019-03-20T23:14:31.919Z,19.10
2019-03-20T23:17:15.698Z,19.27
2019-03-20T23:19:49.423Z,17.17
2019-03-20T23:22:20.485Z,18.83
2019-03-20T23:24:54.761Z,20.83
2019-03-20T23:27:30.474Z,16.80
2019-03-20T23:30:05.667Z,27.83
2019-03-20T23:32:35.570Z,17.43
2019-03-20T23:35:06.726Z,16.93
2019-03-20T23:37:43.027Z,21.47
2019-03-20T23:40:16.285Z,17.13
2019-03-20T23:42:49.567Z,18.70
2019-03-20T23:45:22.453Z,18.67
2019-03-20T23:48:23.702Z,16.57
2019-03-20T23:50:59.516Z,18.10
2019-03-20T23:53:53.983Z,15.10
2019-03-20T23:56:25.826Z,21.67
2019-03-20T23:58:57.364Z,23.50
